Tiempo atmosférico en la estación meteorológica de Beasain, Gipuzkoa (245 m.)



Fecha
DESCASC
Temp. máxima en grados centígrados (hora)
DESCASC
Temp. mínima en grados centígrados (hora)
DESCASC
Temp. media en grados centígrados
DESCASC
Racha de viento máxima en m/sg (hora)
DESCASC
Velocidad máxima media en intervalos de 10 minutos(hora)
DESCASC
Precipitaciones diarias en mm
DESCASC
Precipitaciones de 00:00 a 06:00 en mm
DESCASC
Precipitaciones de 06:00 a 12:00 en mm
DESCASC
Precipitaciones de 12:00 a 18:00 en mm
DESCASC
Precipitaciones de 18:00 a 24:00 en mm
DESCASC
13-01-2021 -- (--) -- (--) -- -- (--) -- (--) -- -- 0 0 0
12-01-2021 -- (--) -- (--) -- -- (--) -- (--) -- -- -- -- --
11-01-2021 -- (--) -- (--) -- -- (--) -- (--) -- 0 -- -- --
10-01-2021 1.3 (13:40) -0.3 (00:00) 0.5 2.78 (08:10) 1.67 (08:10) 0 0 0 0 0
09-01-2021 0.6 (12:20) -1.2 (-00:0) -0.3 1.94 (00:40) 1.39 (00:40) 7 0 0 3.2 3.8
08-01-2021 4.7 (15:20) -2.2 (-00:0) 1.2 7.5 (16:10) 3.89 (15:40) 0 0 0 0 0
07-01-2021 5.5 (14:40) -3.1 (-00:0) 1.2 4.72 (14:50) 2.78 (14:50) 0 0 0 0 0
06-01-2021 6.8 (15:30) -1.8 (-00:0) 2.5 2.78 (02:10) 1.94 (15:00) 0 0 0 0 0
05-01-2021 4 (15:20) 0.1 (00:00) 2.1 2.5 (16:30) 1.11 (15:20) 6.2 2.4 3.8 0 0
04-01-2021 3.2 (12:30) 0.1 (00:00) 1.7 6.67 (18:40) 3.61 (18:40) 20.6 1 4.4 9.4 5.8
03-01-2021 4.4 (15:30) -0.5 (-00:0) 2 5.28 (17:20) 2.78 (17:40) 7.2 0.2 2.6 3.8 0.6
02-01-2021 3.4 (15:50) 0.1 (00:00) 1.8 3.61 (02:40) 1.94 (09:50) 25.4 15.8 9 0.4 0.2
01-01-2021 7.8 (12:50) 0.4 (00:00) 4.1 8.33 (14:30) 4.17 (14:30) 11.2 1 0.6 0.2 9.4
31-12-2020 9.1 (15:20) 2.9 (00:00) 6 8.61 (15:00) 3.33 (17:20) 3.2 0 0 1.2 2
30-12-2020 5.7 (15:40) 0.9 (00:00) 3.3 5.28 (00:30) 2.5 (00:40) 27 15 9.6 2.2 0.2
29-12-2020 7.4 (14:40) 2.9 (00:00) 5.2 8.89 (15:00) 3.89 (15:40) 15.2 1.6 2.8 4.2 6.6
28-12-2020 6.8 (00:00) 3 (00:00) 4.9 11.94 (02:20) 5 (02:40) 24.8 8.8 1.4 9 5.6
27-12-2020 10.4 (21:00) 1.7 (00:00) 6 17.78 (21:20) 7.78 (20:40) 3.8 0 0 0 3.8
26-12-2020 7.6 (12:40) 2 (00:00) 4.8 3.89 (15:00) 2.22 (15:20) 1 0.8 0 0 0.2
25-12-2020 6.7 (00:00) 2.3 (00:00) 4.5 7.5 (20:10) 3.33 (14:10) 20.4 7.4 4.2 5.2 3.6
24-12-2020 9.7 (14:40) 4.9 (00:00) 7.3 10 (23:00) 3.89 (23:00) 12.4 0.2 0 0 12.2
23-12-2020 16.4 (13:10) 7.9 (00:00) 12.1 11.94 (01:30) 6.11 (01:50) 1.6 0 0 0 1.6
22-12-2020 18.8 (15:20) 6.7 (00:00) 12.7 11.11 (23:30) 5.83 (12:40) 0 0 0 0 0
21-12-2020 16.2 (15:40) 7.1 (00:00) 11.7 4.72 (16:00) 2.5 (14:50) 2.8 2.4 0.4 0 0
20-12-2020 15 (15:00) 2.8 (00:00) 8.9 2.78 (23:59) 1.39 (14:30) 0 0 0 0 0
19-12-2020 14.4 (13:10) 7.8 (00:00) 11.1 12.22 (00:30) 6.67 (00:30) 0.8 0.8 0 0 0
18-12-2020 13.8 (14:40) 3.1 (00:00) 8.5 13.89 (20:40) 7.78 (20:40) 0 0 0 0 0
17-12-2020 15.6 (14:40) 4.3 (00:00) 10 3.61 (00:20) 2.22 (00:30) 0 0 0 0 0

Gráficas

Temp. máximas Temp. mínimas Temp. medias Precipitaciones Rachas de viento máximas Velocidades máximas media en intervalos de 10 minutos

Datos horarios

Fecha y hora oficial Temperatura (ºC) Velocidad del viento (km/h) Dirección del viento Racha (km/h) Dirección de racha Precipitación (mm) Presión (hPa) Tendencia (hPa) Humedad (%)
2021-01-15 23:00:00 6.8 2 Nordeste 10 Norte 0 -- -- 94
2021-01-15 22:00:00 6.7 0 Calma 6 Sur 0 -- -- 94
2021-01-15 21:00:00 7 3 Este 12 Nordeste 0 -- -- 92
2021-01-15 20:00:00 6.7 4 Sur 8 Sur 0 -- -- 95
2021-01-15 19:00:00 6.8 2 Nordeste 15 Noroeste 0 -- -- 93
2021-01-15 18:00:00 7.5 3 Norte 17 Norte 0 -- -- 88
2021-01-15 17:00:00 7.9 4 Norte 21 Norte 0.2 -- -- 90
2021-01-15 16:00:00 9.5 8 Norte 26 Nordeste 0 -- -- 76
2021-01-15 15:00:00 10.4 8 Norte 27 Norte 0 -- -- 74
2021-01-15 14:00:00 9.5 14 Norte 27 Nordeste 0 -- -- 72
2021-01-15 13:00:00 9.6 10 Norte 21 Norte 0 -- -- 75
2021-01-15 12:00:00 8.5 6 Norte 19 Nordeste 0 -- -- 94
2021-01-15 11:00:00 7.1 3 Sur 8 Sudoeste 0 -- -- 100
2021-01-15 10:00:00 6 3 Sudoeste 5 Este 0 -- -- 100
2021-01-15 09:00:00 5.7 0 Calma 8 Sudeste 0.2 -- -- 100
2021-01-15 08:00:00 5.8 3 Sudeste 7 Este 0.2 -- -- 100
2021-01-15 07:00:00 6.1 2 Este 10 Norte 0.2 -- -- 100
2021-01-15 06:00:00 5.8 2 Noroeste 6 Este 0.6 -- -- 100
2021-01-15 05:00:00 5.7 3 Sur 5 Sudeste 0.8 -- -- 100
2021-01-15 04:00:00 5.7 2 Este 12 Noroeste 0.2 -- -- 100
2021-01-15 03:00:00 4.8 3 Norte 5 Norte 0 -- -- 100
2021-01-15 02:00:00 4.8 0 Calma 4 Sudeste 0 -- -- 100
2021-01-15 01:00:00 5.6 3 Nordeste 8 Nordeste 0 -- -- 100
2021-01-15 00:00:00 6.7 3 Nordeste 7 Nordeste 0 -- -- 100
2021-01-14 23:00:00 7.3 4 Noroeste 11 Noroeste 0.8 -- -- 100
2021-01-14 22:00:00 6.8 2 Nordeste 7 Este 0.6 -- -- 100
2021-01-14 21:00:00 6.7 0 Calma 10 Sudeste 0.2 -- -- 100
2021-01-14 20:00:00 6.6 6 Sur 9 Sudeste 0.4 -- -- 100
2021-01-14 19:00:00 6.6 3 Sur 5 Sudeste 0.6 -- -- 99
2021-01-14 18:00:00 7 2 Sur 8 Sur 0 -- -- 95
2021-01-14 17:00:00 7.6 6 Nordeste 14 Norte 0 -- -- 88
2021-01-14 16:00:00 8.5 10 Norte 20 Norte 0 -- -- 79
2021-01-14 15:00:00 9.2 9 Norte 23 Norte 0 -- -- 74
2021-01-14 14:00:00 9.5 10 Norte 20 Norte 0 -- -- 72
2021-01-14 13:00:00 8.2 3 Sudeste 6 Sur 0 -- -- 82
2021-01-14 12:00:00 6.4 0 Calma 4 Norte 0 -- -- 94
2021-01-14 11:00:00 5.7 0 Calma 3 Oeste 0 -- -- 97
2021-01-14 10:00:00 5.2 0 Calma 4 Sudeste 0 -- -- 96
2021-01-14 09:00:00 5 2 Sudeste 4 Sudeste 0 -- -- 97
2021-01-14 08:00:00 5 0 Calma 3 Norte 0 -- -- 97
2021-01-14 07:00:00 5 0 Calma 4 Norte 0 -- -- 97
2021-01-14 06:00:00 5 0 Calma 4 Norte 0 -- -- 99
2021-01-14 05:00:00 5 3 Norte 5 Norte 0 -- -- 99
2021-01-14 04:00:00 5 0 Calma 4 Norte 0 -- -- 99
2021-01-14 03:00:00 5 0 Calma 5 Norte 0 -- -- 99
2021-01-14 02:00:00 5.1 2 Norte 5 Norte 0 -- -- 100
2021-01-14 01:00:00 5.2 0 Calma 5 Norte 0 -- -- 100
2021-01-14 00:00:00 5.3 0 Calma 3 Noroeste 0 -- -- 99
2021-01-13 23:00:00 5.4 3 Norte 6 Norte 0 -- -- 100
2021-01-13 22:00:00 5.4 0 Calma 4 Norte 0 -- -- 99
2021-01-13 21:00:00 5.6 0 Calma 3 Noroeste 0 -- -- 99
2021-01-13 20:00:00 5.7 3 Norte 8 Norte 0 -- -- 97
2021-01-13 19:00:00 6 3 Nordeste 8 Norte 0 -- -- 97
2021-01-13 18:00:00 6.6 5 Nordeste 9 Nordeste 0 -- -- 96
2021-01-13 17:00:00 7.2 5 Nordeste 13 Norte 0 -- -- 95
2021-01-13 16:00:00 7.6 4 Norte 7 Norte 0 -- -- 95
2021-01-13 15:00:00 8.2 0 Calma 5 Nordeste 0 -- -- 91
2021-01-13 14:00:00 7.7 0 Calma 5 Noroeste 0 -- -- 93
2021-01-13 13:00:00 6.9 0 Calma 4 Sudoeste 0 -- -- 97
2021-01-13 12:00:00 6.1 0 Calma 5 Sur 0 -- -- 100
2021-01-13 11:00:00 5.3 3 Sur 6 Sudoeste 0 -- -- 100
2021-01-13 10:00:00 4.5 0 Calma 5 Sudeste 0 -- -- 100
2021-01-13 09:00:00 4.1 3 Sur 6 Sur 0 -- -- 100
2021-01-13 08:00:00 4.2 0 Calma 6 Norte 0 -- -- 100
2021-01-13 07:00:00 4.1 2 Norte 4 Noroeste 0 -- -- 100
2021-01-13 06:00:00 4.1 0 Calma 4 Noroeste 0 -- -- 99
2021-01-13 05:00:00 4.1 2 Norte 5 Norte 0 -- -- 99
2021-01-13 04:00:00 4.1 0 Calma 5 Noroeste 0 -- -- 98
2021-01-13 03:00:00 4.1 0 Calma 6 Norte 0 -- -- 98
2021-01-13 02:00:00 -- -- -- -- -- -- -- -- --
2021-01-13 01:00:00 -- -- -- -- -- -- -- -- --
2021-01-13 00:00:00 -- -- -- -- -- -- -- -- --
2021-01-12 23:00:00 -- -- -- -- -- -- -- -- --
2021-01-12 22:00:00 -- -- -- -- -- -- -- -- --
2021-01-12 21:00:00 -- -- -- -- -- -- -- -- --
2021-01-12 20:00:00 -- -- -- -- -- -- -- -- --
2021-01-12 19:00:00 -- -- -- -- -- -- -- -- --
2021-01-12 18:00:00 -- -- -- -- -- -- -- -- --
2021-01-12 17:00:00 -- -- -- -- -- -- -- -- --
2021-01-12 16:00:00 -- -- -- -- -- -- -- -- --
2021-01-12 15:00:00 -- -- -- -- -- -- -- -- --
2021-01-12 14:00:00 -- -- -- -- -- -- -- -- --
2021-01-12 13:00:00 -- -- -- -- -- -- -- -- --
2021-01-12 12:00:00 -- -- -- -- -- -- -- -- --
2021-01-12 11:00:00 -- -- -- -- -- -- -- -- --
2021-01-12 10:00:00 -- -- -- -- -- -- -- -- --
2021-01-12 09:00:00 -- -- -- -- -- -- -- -- --
2021-01-12 08:00:00 -- -- -- -- -- -- -- -- --
2021-01-12 07:00:00 -- -- -- -- -- -- -- -- --
2021-01-12 06:00:00 -- -- -- -- -- -- -- -- --
2021-01-12 05:00:00 -- -- -- -- -- -- -- -- --
2021-01-12 04:00:00 -- -- -- -- -- -- -- -- --
2021-01-12 03:00:00 -- -- -- -- -- -- -- -- --
2021-01-12 02:00:00 -- -- -- -- -- -- -- -- --
2021-01-12 01:00:00 -- -- -- -- -- -- -- -- --
2021-01-12 00:00:00 -- -- -- -- -- -- -- -- --
2021-01-11 23:00:00 -- -- -- -- -- -- -- -- --
2021-01-11 22:00:00 -- -- -- -- -- -- -- -- --
2021-01-11 21:00:00 -- -- -- -- -- -- -- -- --
2021-01-11 20:00:00 -- -- -- -- -- -- -- -- --
2021-01-11 19:00:00 -- -- -- -- -- -- -- -- --
2021-01-11 18:00:00 -- -- -- -- -- -- -- -- --
2021-01-11 17:00:00 -- -- -- -- -- -- -- -- --
2021-01-11 16:00:00 -- -- -- -- -- -- -- -- --
2021-01-11 15:00:00 -- -- -- -- -- -- -- -- --
2021-01-11 14:00:00 -- -- -- -- -- -- -- -- --
2021-01-11 13:00:00 -- -- -- -- -- -- -- -- --
2021-01-11 12:00:00 -- -- -- -- -- -- -- -- --
2021-01-11 11:00:00 -- -- -- -- -- -- -- -- --
2021-01-11 10:00:00 -- -- -- -- -- -- -- -- --
2021-01-11 09:00:00 -- -- -- -- -- -- -- -- --
2021-01-11 08:00:00 -- -- -- -- -- -- -- -- --
2021-01-11 07:00:00 0.3 3 Sudeste 4 Sudeste 0 -- -- 100
2021-01-11 06:00:00 0.2 2 Nordeste 4 Nordeste 0 -- -- 100
2021-01-11 05:00:00 0.2 0 Calma 4 Sudeste 0 -- -- 100
2021-01-11 04:00:00 0.2 0 Calma 4 Sur 0 -- -- 100
2021-01-11 03:00:00 0.2 0 Calma 4 Norte 0 -- -- 100
2021-01-11 02:00:00 0.2 0 Calma 3 Sudeste 0 -- -- 100
2021-01-11 01:00:00 0.3 2 Norte 5 Nordeste 0 -- -- 100
2021-01-11 00:00:00 0.4 3 Nordeste 5 Nordeste 0 -- -- 100
2021-01-10 23:00:00 0.4 2 Norte 6 Norte 0 -- -- 100
2021-01-10 22:00:00 0.6 2 Este 6 Sur 0 -- -- 100
2021-01-10 21:00:00 0.6 0 Calma 5 Sudeste 0 -- -- 100
2021-01-10 20:00:00 0.6 2 Sudeste 8 Sudeste 0 -- -- 100
2021-01-10 19:00:00 0.6 0 Calma 5 Nordeste 0 -- -- 100
2021-01-10 18:00:00 0.8 0 Calma 5 Sudeste 0 -- -- 100
2021-01-10 17:00:00 0.9 0 Calma 5 Sudeste 0 -- -- 100
2021-01-10 16:00:00 1.1 0 Calma 4 Sudeste 0 -- -- 100
2021-01-10 15:00:00 1.2 0 Calma 8 Sudeste 0 -- -- 100
2021-01-10 14:00:00 1.3 3 Sur 7 Sur 0 -- -- 100
2021-01-10 13:00:00 1 0 Calma 5 Sudeste 0 -- -- 100
2021-01-10 12:00:00 0.5 2 Sur 5 Sudoeste 0 -- -- 100
2021-01-10 11:00:00 0.4 3 Sur 5 Sudeste 0 -- -- 100
2021-01-10 10:00:00 0.2 0 Calma 7 Sur 0 -- -- 100
2021-01-10 09:00:00 0.1 3 Sudeste 10 Sudeste 0 -- -- 100
2021-01-10 08:00:00 -0.1 0 Calma 6 Sudeste 0 -- -- 100
2021-01-10 07:00:00 -0.1 0 Calma 0 Calma 0 -- -- 100
2021-01-10 06:00:00 -0.2 0 Calma 0 Calma 0 -- -- 100
2021-01-10 05:00:00 -0.2 0 Calma 0 Calma 0 -- -- 100
2021-01-10 04:00:00 -0.2 0 Calma 3 Norte 0 -- -- 100
2021-01-10 03:00:00 -0.3 0 Calma 0 Calma 0 -- -- 100
2021-01-10 02:00:00 -0.3 0 Calma 2 Nordeste 0 -- -- 100
2021-01-10 01:00:00 -0.3 0 Calma 0 Calma 0 -- -- 100
2021-01-10 00:00:00 -0.3 0 Calma 2 Noroeste 0.2 -- -- 100
2021-01-09 23:00:00 -0.2 0 Calma 2 Norte 0.6 -- -- 100
2021-01-09 22:00:00 -0.3 0 Calma 2 Sur 0.8 -- -- 100
2021-01-09 21:00:00 -0.2 0 Calma 3 Norte 0.8 -- -- 100
2021-01-09 20:00:00 -0.2 2 Norte 4 Norte 0.6 -- -- 100
2021-01-09 19:00:00 -0.2 0 Calma 4 Norte 0.8 -- -- 100
2021-01-09 18:00:00 -0.1 0 Calma 3 Sur 0.8 -- -- 100
2021-01-09 17:00:00 0.2 0 Calma 3 Sudoeste 0.4 -- -- 99
2021-01-09 16:00:00 0.3 2 Norte 6 Nordeste 0.2 -- -- 96
2021-01-09 15:00:00 0.4 0 Calma 5 Sur 0.2 -- -- 99
2021-01-09 14:00:00 0.4 0 Calma 4 Sudeste 0.8 -- -- 99
2021-01-09 13:00:00 0.3 2 Sudoeste 4 Sudoeste 0.8 -- -- 97
2021-01-09 12:00:00 0.5 2 Sur 5 Sur 0 -- -- 95
2021-01-09 11:00:00 0 0 Calma 5 Sudoeste 0 -- -- 98
2021-01-09 10:00:00 -0.7 4 Sur 6 Sur 0 -- -- 100
2021-01-09 09:00:00 -1.1 0 Calma 4 Sur 0 -- -- 100
2021-01-09 08:00:00 -1.2 0 Calma 3 Nordeste 0 -- -- 99
2021-01-09 07:00:00 -1.2 0 Calma 3 Sur 0 -- -- 99
2021-01-09 06:00:00 -1.2 2 Sur 4 Nordeste 0 -- -- 98
2021-01-09 05:00:00 -1.1 0 Calma 3 Nordeste 0 -- -- 97
2021-01-09 04:00:00 -1 0 Calma 7 Sur 0 -- -- 97
2021-01-09 03:00:00 -0.9 0 Calma 5 Sur 0 -- -- 97
2021-01-09 02:00:00 -0.8 3 Nordeste 4 Nordeste 0 -- -- 96
2021-01-09 01:00:00 -1 3 Sur 7 Sur 0 -- -- 96
2021-01-09 00:00:00 -0.8 0 Calma 5 Sur 0 -- -- 94
2021-01-08 23:00:00 -0.6 0 Calma 4 Sudeste 0 -- -- 93
2021-01-08 22:00:00 -0.4 3 Norte 6 Este 0 -- -- 92
2021-01-08 21:00:00 -0.1 3 Nordeste 6 Noroeste 0 -- -- 89
2021-01-08 20:00:00 0.9 4 Nordeste 10 Nordeste 0 -- -- 82
2021-01-08 19:00:00 1.3 8 Nordeste 12 Nordeste 0 -- -- 84
2021-01-08 18:00:00 1.7 7 Nordeste 13 Nordeste 0 -- -- 81
2021-01-08 17:00:00 2.8 8 Nordeste 27 Norte 0 -- -- 76
2021-01-08 16:00:00 3.8 10 Norte 26 Norte 0 -- -- 72
2021-01-08 15:00:00 4.6 5 Norte 17 Noroeste 0 -- -- 64
2021-01-08 14:00:00 4 9 Norte 19 Norte 0 -- -- 67
2021-01-08 13:00:00 3.5 10 Norte 18 Nordeste 0 -- -- 70
2021-01-08 12:00:00 3.6 4 Noroeste 9 Sudeste 0 -- -- 70
2021-01-08 11:00:00 1.8 5 Sudoeste 8 Sudoeste 0 -- -- 81
2021-01-08 10:00:00 -0.6 3 Sur 6 Sur 0 -- -- 90
2021-01-08 09:00:00 -1.7 2 Nordeste 6 Sur 0 -- -- 95
2021-01-08 08:00:00 -1.8 4 Sur 6 Sur 0 -- -- 95
2021-01-08 07:00:00 -1.7 0 Calma 6 Sur 0 -- -- 97
2021-01-08 06:00:00 -1.9 0 Calma 4 Sur 0 -- -- 98
2021-01-08 05:00:00 -2.2 0 Calma 5 Noroeste 0 -- -- 97
2021-01-08 04:00:00 -1.5 2 Sudeste 5 Sudeste 0 -- -- 96
2021-01-08 03:00:00 -1.2 0 Calma 8 Sur 0 -- -- 95
2021-01-08 02:00:00 -1.3 4 Sur 8 Sur 0 -- -- 95
2021-01-08 01:00:00 -1.4 4 Norte 8 Norte 0 -- -- 92
2021-01-08 00:00:00 -0.7 5 Nordeste 8 Este 0 -- -- 91
2021-01-07 23:00:00 0.2 5 Nordeste 6 Nordeste 0 -- -- 86
2021-01-07 22:00:00 1.4 3 Norte 8 Nordeste 0 -- -- 88
2021-01-07 21:00:00 1.6 2 Nordeste 6 Nordeste 0 -- -- 86
2021-01-07 20:00:00 2.1 4 Nordeste 9 Nordeste 0 -- -- 82
2021-01-07 19:00:00 2.3 4 Nordeste 11 Este 0 -- -- 82
2021-01-07 18:00:00 2.6 4 Nordeste 13 Nordeste 0 -- -- 83
2021-01-07 17:00:00 3.2 4 Nordeste 10 Este 0 -- -- 83
2021-01-07 16:00:00 3.6 7 Nordeste 16 Nordeste 0 -- -- 75
2021-01-07 15:00:00 4.2 8 Norte 17 Norte 0 -- -- 73
2021-01-07 14:00:00 4 5 Sur 13 Sudeste 0 -- -- 80
2021-01-07 13:00:00 1.7 7 Sur 12 Sudeste 0 -- -- 95
2021-01-07 12:00:00 -0.4 0 Calma 5 Sudoeste 0 -- -- 100
2021-01-07 11:00:00 -2.6 3 Sudoeste 6 Sudoeste 0 -- -- 100
2021-01-07 10:00:00 -3 4 Sudoeste 8 Sudoeste 0 -- -- 100
2021-01-07 09:00:00 -2.9 3 Norte 5 Norte 0 -- -- 100
2021-01-07 08:00:00 -2.9 2 Norte 8 Sudoeste 0 -- -- 100
2021-01-07 07:00:00 -2.9 5 Sudoeste 9 Sur 0 -- -- 100
2021-01-07 06:00:00 -2.7 0 Calma 5 Oeste 0 -- -- 100
2021-01-07 05:00:00 -2.3 0 Calma 4 Nordeste 0 -- -- 100
2021-01-07 04:00:00 -2.2 2 Norte 7 Sudoeste 0 -- -- 100
2021-01-07 03:00:00 -2.1 0 Calma 7 Sudoeste 0 -- -- 100
2021-01-07 02:00:00 -1.5 3 Norte 5 Nordeste 0 -- -- 100
2021-01-07 01:00:00 -1.6 0 Calma 6 Nordeste 0 -- -- 100
2021-01-07 00:00:00 -1.7 4 Sur 6 Sur 0 -- -- 100
2021-01-06 23:00:00 -1.6 4 Sur 5 Sur 0 -- -- 100
2021-01-06 22:00:00 -1.1 0 Calma 5 Nordeste 0 -- -- 100
2021-01-06 21:00:00 -0.5 3 Sur 5 Sudeste 0 -- -- 100
2021-01-06 20:00:00 0.1 2 Nordeste 4 Norte 0 -- -- 99
2021-01-06 19:00:00 0.8 4 Norte 6 Norte 0 -- -- 97
2021-01-06 18:00:00 2.1 4 Nordeste 9 Norte 0 -- -- 94
2021-01-06 17:00:00 4 5 Norte 8 Norte 0 -- -- 84
2021-01-06 16:00:00 6.1 4 Norte 8 Norte 0 -- -- 74
2021-01-06 15:00:00 6.5 7 Norte 9 Norte 0 -- -- 73
2021-01-06 14:00:00 5.7 4 Noroeste 6 Noroeste 0 -- -- 79
2021-01-06 13:00:00 3.7 5 Sudoeste 8 Sudoeste 0 -- -- 89
2021-01-06 12:00:00 1.8 3 Noroeste 8 Sudoeste 0 -- -- 100
2021-01-06 11:00:00 0.1 3 Noroeste 5 Sudoeste 0 -- -- 100
2021-01-06 10:00:00 -0.5 3 Sudoeste 8 Sudoeste 0 -- -- 100
2021-01-06 09:00:00 -0.9 2 Sudoeste 8 Nordeste 0 -- -- 100
2021-01-06 08:00:00 -0.7 4 Nordeste 6 Sudeste 0 -- -- 100
2021-01-06 07:00:00 -0.6 4 Este 6 Norte 0 -- -- 100
2021-01-06 06:00:00 -0.4 0 Calma 8 Nordeste 0 -- -- 100
2021-01-06 05:00:00 -0.2 5 Nordeste 8 Norte 0 -- -- 100
2021-01-06 04:00:00 -0.2 0 Calma 5 Norte 0 -- -- 100
2021-01-06 03:00:00 0 3 Sudeste 10 Norte 0 -- -- 100
2021-01-06 02:00:00 0.6 4 Nordeste 8 Norte 0 -- -- 100
2021-01-06 01:00:00 1.4 3 Nordeste 4 Nordeste 0 -- -- 100
2021-01-06 00:00:00 1.5 2 Noroeste 9 Sudoeste 0 -- -- 100
2021-01-05 23:00:00 1.6 4 Norte 7 Nordeste 0 -- -- 100
2021-01-05 22:00:00 1.6 3 Sur 5 Sur 0 -- -- 100
2021-01-05 21:00:00 2 3 Nordeste 6 Nordeste 0 -- -- 100
2021-01-05 20:00:00 2.2 3 Norte 4 Norte 0 -- -- 100
2021-01-05 19:00:00 2.5 0 Calma 4 Oeste 0 -- -- 100
2021-01-05 18:00:00 3 3 Nordeste 4 Nordeste 0 -- -- 99
2021-01-05 17:00:00 3.4 3 Sur 9 Sur 0 -- -- 95
2021-01-05 16:00:00 3.6 3 Sudoeste 9 Sur 0 -- -- 98
2021-01-05 15:00:00 3.8 0 Calma 5 Norte 0 -- -- 100
2021-01-05 14:00:00 2.3 2 Oeste 4 Sudoeste 0 -- -- 100
2021-01-05 13:00:00 1.6 0 Calma 4 Sur 0 -- -- 100
2021-01-05 12:00:00 1 3 Sur 5 Sur 0 -- -- 100
2021-01-05 11:00:00 0.5 2 Nordeste 4 Norte 0.8 -- -- 100
2021-01-05 10:00:00 0.5 3 Nordeste 5 Norte 1.2 -- -- 100
2021-01-05 09:00:00 0.4 3 Nordeste 5 Sudeste 0 -- -- 100
2021-01-05 08:00:00 0.3 0 Calma 5 Sudoeste 1.4 -- -- 100
2021-01-05 07:00:00 0.4 2 Nordeste 6 Norte 0.4 -- -- 100
2021-01-05 06:00:00 0.3 3 Sur 7 Sudoeste 0.8 -- -- 100
2021-01-05 05:00:00 0.3 3 Sur 5 Sur 0.4 -- -- 100
2021-01-05 04:00:00 0.2 3 Sur 6 Sur 0.2 -- -- 100
2021-01-05 03:00:00 0.2 0 Calma 3 Sudeste 0.2 -- -- 100
2021-01-05 02:00:00 0.2 3 Sur 5 Sur 0.8 -- -- 100
2021-01-05 01:00:00 0.1 2 Sur 4 Norte 0 -- -- 100
2021-01-05 00:00:00 0.1 0 Calma 8 Sur 0 -- -- 100
2021-01-04 23:00:00 0.3 2 Noroeste 12 Nordeste 1.2 -- -- 100
2021-01-04 22:00:00 0.1 2 Sudeste 9 Sudeste 0 -- -- 100
2021-01-04 21:00:00 0.3 6 Sur 18 Norte 0.4 -- -- 100
2021-01-04 20:00:00 0.3 3 Sur 9 Noroeste 2 -- -- 100
2021-01-04 19:00:00 0.8 9 Norte 24 Norte 2.2 -- -- 99
2021-01-04 18:00:00 1 6 Norte 16 Norte 2.4 -- -- 99
2021-01-04 17:00:00 1.7 9 Norte 18 Nordeste 2.2 -- -- 99
2021-01-04 16:00:00 2.3 6 Norte 18 Nordeste 0.8 -- -- 98
2021-01-04 15:00:00 2.3 6 Norte 14 Norte 1.2 -- -- 100
2021-01-04 14:00:00 1.9 6 Norte 13 Nordeste 2 -- -- 100
2021-01-04 13:00:00 2.7 5 Norte 8 Norte 0.8 -- -- 100
2021-01-04 12:00:00 2.7 2 Noroeste 5 Norte 0.2 -- -- 100
2021-01-04 11:00:00 1.6 0 Calma 5 Norte 0 -- -- 100
2021-01-04 10:00:00 0.7 4 Norte 6 Norte 0.2 -- -- 100
2021-01-04 09:00:00 0.2 0 Calma 5 Nordeste 0 -- -- 100
2021-01-04 08:00:00 0.2 3 Nordeste 5 Norte 2 -- -- 100
2021-01-04 07:00:00 0.5 2 Este 8 Nordeste 2 -- -- 100
2021-01-04 06:00:00 0.9 3 Norte 9 Nordeste 0.4 -- -- 100
2021-01-04 05:00:00 1.1 2 Nordeste 6 Nordeste 0.4 -- -- 100
2021-01-04 04:00:00 1 3 Norte 7 Nordeste 0.2 -- -- 100
2021-01-04 03:00:00 0.6 3 Sudeste 8 Sudoeste 0 -- -- 100
2021-01-04 02:00:00 0.6 3 Nordeste 7 Nordeste 0 -- -- 100
2021-01-04 01:00:00 0.9 0 Calma 6 Nordeste 0 -- -- 100
2021-01-04 00:00:00 0.8 4 Nordeste 8 Norte 0 -- -- 100
2021-01-03 23:00:00 1.1 2 Norte 8 Norte 0.2 -- -- 100
2021-01-03 22:00:00 1.6 2 Norte 6 Norte 0 -- -- 100
2021-01-03 21:00:00 1.9 0 Calma 6 Norte 0.4 -- -- 100
2021-01-03 20:00:00 1.7 3 Norte 8 Nordeste 0 -- -- 100
2021-01-03 19:00:00 2.1 3 Nordeste 8 Norte 0 -- -- 100
2021-01-03 18:00:00 2.6 6 Norte 19 Nordeste 1.8 -- -- 98
2021-01-03 17:00:00 3.8 5 Norte 13 Norte 0.8 -- -- 100
2021-01-03 16:00:00 4.3 6 Norte 9 Norte 0.2 -- -- 99
2021-01-03 15:00:00 3.9 0 Calma 5 Sudoeste 0 -- -- 100
2021-01-03 14:00:00 3.8 4 Norte 8 Norte 0.2 -- -- 100
2021-01-03 13:00:00 2.8 0 Calma 6 Sudoeste 0.8 -- -- 100
2021-01-03 12:00:00 2.1 2 Sur 5 Sur 0 -- -- 100
2021-01-03 11:00:00 1.2 0 Calma 4 Sur 0.2 -- -- 100
2021-01-03 10:00:00 0.4 0 Calma 5 Sur 1.6 -- -- 100
2021-01-03 09:00:00 0.3 3 Nordeste 4 Nordeste 0.2 -- -- 100
2021-01-03 08:00:00 0.1 0 Calma 5 Sudeste 0 -- -- 100
2021-01-03 07:00:00 0.1 0 Calma 5 Sur 0.6 -- -- 100
2021-01-03 06:00:00 0.2 0 Calma 3 Sur 0.2 -- -- 100
2021-01-03 05:00:00 0.2 3 Sudeste 5 Sur 0 -- -- 100
2021-01-03 04:00:00 -0.1 0 Calma 5 Sur 0 -- -- 100
2021-01-03 03:00:00 -0.3 2 Sudeste 8 Sudeste 0 -- -- 100
2021-01-03 02:00:00 -0.5 4 Sur 7 Sudeste 0 -- -- 100
2021-01-03 01:00:00 -0.5 2 Sudeste 5 Sudeste 0 -- -- 100
2021-01-03 00:00:00 0.4 3 Norte 4 Norte 0 -- -- 100
2021-01-02 23:00:00 1 3 Nordeste 5 Sudeste 0 -- -- 100
2021-01-02 22:00:00 1.1 2 Este 4 Nordeste 0 -- -- 100
2021-01-02 21:00:00 1.6 0 Calma 4 Sudeste 0 -- -- 100
2021-01-02 20:00:00 1.6 2 Sudeste 5 Sur 0 -- -- 100
2021-01-02 19:00:00 1.8 0 Calma 5 Sudeste 0.2 -- -- 100
2021-01-02 18:00:00 2.2 2 Sudeste 7 Sudoeste 0 -- -- 100
2021-01-02 17:00:00 2.7 2 Este 13 Nordeste 0.4 -- -- 98
2021-01-02 16:00:00 3.3 3 Nordeste 11 Oeste 0 -- -- 94
2021-01-02 15:00:00 2.8 3 Norte 9 Norte 0 -- -- 98
2021-01-02 14:00:00 2.7 0 Calma 5 Sudoeste 0 -- -- 99